Terminal Aerodrome Forecast
Issued by NWS

Home | Current Version | Previous Version | Text Only | Print | Product List | Glossary On
Versions: 1 2 3 4 5 6 7 8 9 10 11 12
000
FTUS44 KOUN 271739
TAFPNC
TAF
KPNC 271739Z 2718/2818 16012G18KT P6SM BKN015
     FM272100 17012KT P6SM SCT025
     FM280400 16010KT P6SM BKN020
     FM281600 19012G20KT P6SM BKN150=

USA.gov is the U.S. government's official web portal to all federal, state and local government web resources and services.